createdAt,value
2018-07-19T00:00:32.340Z,952.34
2018-07-19T00:01:32.356Z,952.36
2018-07-19T00:02:32.330Z,952.29
2018-07-19T00:03:32.341Z,952.27
2018-07-19T00:04:32.298Z,952.33
2018-07-19T00:05:32.301Z,952.33
2018-07-19T00:06:33.242Z,952.35
2018-07-19T00:07:32.287Z,952.35
2018-07-19T00:08:32.282Z,952.34
2018-07-19T00:09:32.239Z,952.33
2018-07-19T00:10:32.229Z,952.34
2018-07-19T00:11:32.234Z,952.33
2018-07-19T00:12:32.216Z,952.32
2018-07-19T00:13:32.195Z,952.32
2018-07-19T00:14:32.213Z,952.38
2018-07-19T00:15:32.176Z,952.35
2018-07-19T00:16:32.158Z,952.33
2018-07-19T00:17:32.162Z,952.32
2018-07-19T00:18:32.135Z,952.36
2018-07-19T00:19:32.163Z,952.34
2018-07-19T00:20:32.119Z,952.33
2018-07-19T00:21:32.106Z,952.33
2018-07-19T00:22:32.101Z,952.33
2018-07-19T00:23:32.095Z,952.34
2018-07-19T00:24:32.101Z,952.32
2018-07-19T00:25:32.057Z,952.29
2018-07-19T00:26:32.048Z,952.30
2018-07-19T00:27:32.038Z,952.29
2018-07-19T00:28:32.024Z,952.35
2018-07-19T00:29:32.068Z,952.36
2018-07-19T00:30:32.000Z,952.35
2018-07-19T00:31:31.990Z,952.35
2018-07-19T00:32:31.977Z,952.30
2018-07-19T00:33:31.973Z,952.31
2018-07-19T00:34:31.987Z,952.36
2018-07-19T00:35:31.963Z,952.35
2018-07-19T00:36:31.932Z,952.31
2018-07-19T00:37:31.917Z,952.28
2018-07-19T00:38:31.916Z,952.30
2018-07-19T00:39:31.941Z,952.26
2018-07-19T00:40:31.888Z,952.27
2018-07-19T00:41:31.888Z,952.28
2018-07-19T00:42:31.873Z,952.29
2018-07-19T00:43:31.852Z,952.30
2018-07-19T00:44:31.866Z,952.30
2018-07-19T00:45:31.825Z,952.26
2018-07-19T00:46:31.817Z,952.23
2018-07-19T00:47:31.819Z,952.24
2018-07-19T00:48:31.796Z,952.23
2018-07-19T00:49:31.811Z,952.27
2018-07-19T00:50:31.802Z,952.21
2018-07-19T00:51:31.780Z,952.28
2018-07-19T00:52:31.748Z,952.30
2018-07-19T00:53:31.748Z,952.31
2018-07-19T00:54:31.722Z,952.33
2018-07-19T00:55:31.743Z,952.33
2018-07-19T00:56:31.738Z,952.34
2018-07-19T00:57:31.691Z,952.32
2018-07-19T00:58:31.684Z,952.31
2018-07-19T00:59:31.708Z,952.34
2018-07-19T01:00:31.674Z,952.33
2018-07-19T01:01:32.272Z,952.30
2018-07-19T01:02:31.646Z,952.31
2018-07-19T01:03:31.624Z,952.30
2018-07-19T01:04:31.646Z,952.31
2018-07-19T01:05:31.622Z,952.24
2018-07-19T01:06:31.595Z,952.34
2018-07-19T01:07:31.582Z,952.26
2018-07-19T01:08:31.565Z,952.31
2018-07-19T01:09:31.584Z,952.32
2018-07-19T01:10:31.547Z,952.27
2018-07-19T01:11:31.545Z,952.33
2018-07-19T01:12:31.523Z,952.35
2018-07-19T01:13:31.507Z,952.32
2018-07-19T01:14:31.521Z,952.34
2018-07-19T01:15:31.488Z,952.26
2018-07-19T01:16:31.495Z,952.32
2018-07-19T01:17:31.486Z,952.28
2018-07-19T01:18:31.452Z,952.28
2018-07-19T01:19:31.442Z,952.26
2018-07-19T01:20:31.427Z,952.24
2018-07-19T01:21:31.493Z,952.22
2018-07-19T01:22:31.417Z,952.21
2018-07-19T01:23:31.440Z,952.21
2018-07-19T01:24:31.385Z,952.17
2018-07-19T01:25:31.369Z,952.17
2018-07-19T01:26:31.357Z,952.22
2018-07-19T01:27:31.354Z,952.20
2018-07-19T01:28:31.362Z,952.21
2018-07-19T01:29:31.350Z,952.22
2018-07-19T01:30:31.313Z,952.24
2018-07-19T01:31:31.308Z,952.22
2018-07-19T01:32:31.316Z,952.23
2018-07-19T01:33:31.278Z,952.23
2018-07-19T01:34:31.293Z,952.20
2018-07-19T01:35:31.275Z,952.20
2018-07-19T01:36:31.246Z,952.12
2018-07-19T01:37:31.234Z,952.17
2018-07-19T01:38:31.241Z,952.18
2018-07-19T01:39:31.214Z,952.15
2018-07-19T01:40:31.199Z,952.16
2018-07-19T01:41:31.249Z,952.13
2018-07-19T01:42:31.184Z,952.17
2018-07-19T01:43:31.196Z,952.16
2018-07-19T01:44:31.156Z,952.19
2018-07-19T01:45:31.142Z,952.16
2018-07-19T01:46:31.133Z,952.15
2018-07-19T01:47:31.134Z,952.16
2018-07-19T01:48:31.124Z,952.14
2018-07-19T01:49:31.150Z,952.15
2018-07-19T01:50:31.093Z,952.12
2018-07-19T01:51:31.084Z,952.13
2018-07-19T01:52:31.063Z,952.10
2018-07-19T01:53:31.219Z,952.09
2018-07-19T01:54:31.042Z,952.10
2018-07-19T01:55:31.029Z,952.12
2018-07-19T01:56:31.020Z,952.16
2018-07-19T01:57:31.057Z,952.14
2018-07-19T01:58:30.998Z,952.11
2018-07-19T01:59:31.002Z,952.13
2018-07-19T02:00:30.971Z,952.11
2018-07-19T02:01:30.966Z,952.16
2018-07-19T02:02:30.993Z,952.11
2018-07-19T02:03:30.942Z,952.11
2018-07-19T02:04:30.923Z,952.14
2018-07-19T02:05:30.927Z,952.05
2018-07-19T02:06:30.907Z,952.09
2018-07-19T02:07:30.920Z,952.08
2018-07-19T02:08:30.884Z,952.08
2018-07-19T02:09:30.875Z,952.12
2018-07-19T02:10:30.860Z,952.11
2018-07-19T02:11:30.866Z,952.12
2018-07-19T02:12:30.866Z,952.11
2018-07-19T02:13:30.828Z,952.17
2018-07-19T02:14:30.813Z,952.14
2018-07-19T02:15:30.796Z,952.13
2018-07-19T02:16:30.831Z,952.09
2018-07-19T02:17:30.790Z,952.07
2018-07-19T02:18:30.767Z,952.09
2018-07-19T02:19:30.767Z,952.07
2018-07-19T02:20:30.747Z,952.05
2018-07-19T02:21:30.759Z,952.02
2018-07-19T02:22:30.722Z,952.02
2018-07-19T02:23:30.733Z,952.01
2018-07-19T02:24:30.721Z,952.04
2018-07-19T02:25:30.709Z,952.06
2018-07-19T02:26:30.673Z,952.06
2018-07-19T02:27:30.664Z,952.03
2018-07-19T02:28:30.657Z,952.07
2018-07-19T02:29:30.669Z,952.04
2018-07-19T02:30:30.659Z,952.06
2018-07-19T02:31:30.618Z,952.05
2018-07-19T02:32:30.612Z,952.03
2018-07-19T02:33:30.606Z,952.06
2018-07-19T02:34:30.742Z,952.06
2018-07-19T02:35:30.629Z,952.00
2018-07-19T02:36:30.561Z,952.02
2018-07-19T02:37:30.549Z,951.96
2018-07-19T02:38:30.541Z,952.02
2018-07-19T02:39:30.530Z,952.03
2018-07-19T02:40:30.555Z,952.03
2018-07-19T02:41:30.520Z,952.04
2018-07-19T02:42:30.492Z,951.99
2018-07-19T02:43:30.485Z,952.02
2018-07-19T02:44:30.474Z,952.05
2018-07-19T02:45:30.498Z,952.07
2018-07-19T02:46:30.448Z,952.03
2018-07-19T02:47:30.451Z,952.05
2018-07-19T02:48:30.430Z,952.06
2018-07-19T02:49:30.414Z,952.03
2018-07-19T02:50:30.426Z,952.07
2018-07-19T02:51:30.391Z,952.06
2018-07-19T02:52:30.379Z,952.06
2018-07-19T02:53:30.389Z,952.03
2018-07-19T02:54:30.376Z,952.05
2018-07-19T02:55:30.381Z,952.06
2018-07-19T02:56:30.330Z,952.07
2018-07-19T02:57:30.322Z,952.07
2018-07-19T02:58:30.313Z,952.06
2018-07-19T02:59:30.311Z,952.07
2018-07-19T03:00:30.313Z,952.09
2018-07-19T03:01:30.296Z,952.08
2018-07-19T03:02:30.279Z,952.07
2018-07-19T03:03:30.256Z,952.11
2018-07-19T03:04:30.244Z,952.13
2018-07-19T03:05:30.283Z,952.08
2018-07-19T03:06:30.239Z,952.09
2018-07-19T03:07:30.208Z,952.09
2018-07-19T03:08:30.198Z,952.03
2018-07-19T03:09:30.179Z,952.06
2018-07-19T03:10:30.198Z,952.07
2018-07-19T03:11:30.176Z,952.05
2018-07-19T03:12:30.175Z,952.11
2018-07-19T03:13:30.136Z,952.07
2018-07-19T03:14:30.133Z,952.06
2018-07-19T03:15:30.151Z,952.11
2018-07-19T03:16:31.280Z,952.09
2018-07-19T03:17:30.113Z,952.11
2018-07-19T03:18:30.082Z,952.13
2018-07-19T03:19:30.065Z,952.15
2018-07-19T03:20:30.095Z,952.16
2018-07-19T03:21:30.044Z,952.16
2018-07-19T03:22:30.073Z,952.13
2018-07-19T03:23:30.035Z,952.15
2018-07-19T03:24:30.027Z,952.12
2018-07-19T03:25:30.004Z,952.17
2018-07-19T03:26:29.991Z,952.16
2018-07-19T03:27:30.016Z,952.13
2018-07-19T03:28:29.970Z,952.14
2018-07-19T03:29:29.956Z,952.17
2018-07-19T03:30:29.958Z,952.17
2018-07-19T03:31:29.940Z,952.19
2018-07-19T03:32:29.957Z,952.16
2018-07-19T03:33:29.908Z,952.15
2018-07-19T03:34:29.899Z,952.17
2018-07-19T03:35:29.890Z,952.18
2018-07-19T03:36:29.894Z,952.17
2018-07-19T03:37:29.892Z,952.23
2018-07-19T03:38:29.888Z,952.22
2018-07-19T03:39:29.841Z,952.22
2018-07-19T03:40:29.830Z,952.22
2018-07-19T03:41:29.820Z,952.23
2018-07-19T03:42:29.824Z,952.26
2018-07-19T03:43:31.249Z,952.25
2018-07-19T03:44:29.785Z,952.23
2018-07-19T03:45:29.770Z,952.22
2018-07-19T03:46:29.763Z,952.22
2018-07-19T03:47:29.795Z,952.21
2018-07-19T03:48:29.735Z,952.21
2018-07-19T03:49:29.727Z,952.23
2018-07-19T03:50:29.716Z,952.24
2018-07-19T03:51:29.735Z,952.26
2018-07-19T03:52:29.697Z,952.27
2018-07-19T03:53:29.718Z,952.23
2018-07-19T03:54:29.668Z,952.25
2018-07-19T03:55:29.659Z,952.27
2018-07-19T03:56:29.685Z,952.25
2018-07-19T03:57:29.676Z,952.28
2018-07-19T03:58:29.625Z,952.31
2018-07-19T03:59:29.628Z,952.26
2018-07-19T04:00:29.606Z,952.31
2018-07-19T04:01:29.629Z,952.28
2018-07-19T04:02:29.583Z,952.26
2018-07-19T04:03:29.569Z,952.30
2018-07-19T04:04:29.552Z,952.29
2018-07-19T04:05:29.566Z,952.30
2018-07-19T04:06:29.574Z,952.29
2018-07-19T04:07:29.522Z,952.31
2018-07-19T04:08:29.516Z,952.29
2018-07-19T04:09:29.502Z,952.31
2018-07-19T04:10:29.488Z,952.30
2018-07-19T04:11:29.526Z,952.30
2018-07-19T04:12:29.467Z,952.33
2018-07-19T04:13:29.449Z,952.33
2018-07-19T04:14:29.456Z,952.34
2018-07-19T04:15:30.303Z,952.34
2018-07-19T04:16:29.466Z,952.33
2018-07-19T04:17:29.422Z,952.39
2018-07-19T04:18:29.397Z,952.38
2018-07-19T04:19:29.390Z,952.40
2018-07-19T04:20:29.371Z,952.37
2018-07-19T04:21:29.396Z,952.39
2018-07-19T04:22:29.347Z,952.36
2018-07-19T04:23:29.394Z,952.40
2018-07-19T04:24:29.329Z,952.41
2018-07-19T04:25:29.320Z,952.43
2018-07-19T04:26:29.304Z,952.42
2018-07-19T04:27:29.295Z,952.42
2018-07-19T04:28:30.257Z,952.41
2018-07-19T04:29:29.274Z,952.42
2018-07-19T04:30:29.257Z,952.44
2018-07-19T04:31:29.252Z,952.45
2018-07-19T04:32:29.237Z,952.46
2018-07-19T04:33:29.261Z,952.45
2018-07-19T04:34:29.220Z,952.44
2018-07-19T04:35:29.199Z,952.43
2018-07-19T04:36:29.190Z,952.38
2018-07-19T04:37:29.225Z,952.44
2018-07-19T04:38:29.195Z,952.41
2018-07-19T04:39:29.155Z,952.35
2018-07-19T04:40:29.157Z,952.42
2018-07-19T04:41:29.136Z,952.43
2018-07-19T04:42:29.153Z,952.43
2018-07-19T04:43:29.108Z,952.47
2018-07-19T04:44:29.144Z,952.45
2018-07-19T04:45:29.088Z,952.45
2018-07-19T04:46:29.092Z,952.46
2018-07-19T04:47:29.103Z,952.47
2018-07-19T04:48:29.060Z,952.43
2018-07-19T04:49:29.045Z,952.41
2018-07-19T04:50:29.036Z,952.44
2018-07-19T04:51:29.019Z,952.45
2018-07-19T04:52:29.057Z,952.51
2018-07-19T04:53:29.000Z,952.45
2018-07-19T04:54:29.033Z,952.51
2018-07-19T04:55:28.976Z,952.48
2018-07-19T04:56:28.963Z,952.51
2018-07-19T04:57:28.951Z,952.46
2018-07-19T04:58:28.947Z,952.50
2018-07-19T04:59:28.952Z,952.49
2018-07-19T05:00:28.916Z,952.46
2018-07-19T05:01:28.902Z,952.47
2018-07-19T05:02:28.888Z,952.53
2018-07-19T05:03:28.883Z,952.50
2018-07-19T05:04:28.915Z,952.50
2018-07-19T05:05:28.860Z,952.49
2018-07-19T05:06:28.849Z,952.53
2018-07-19T05:07:28.835Z,952.56
2018-07-19T05:08:29.300Z,952.57
2018-07-19T05:09:28.811Z,952.57
2018-07-19T05:10:28.809Z,952.50
2018-07-19T05:11:28.815Z,952.53
2018-07-19T05:12:28.781Z,952.55
2018-07-19T05:13:28.765Z,952.55
2018-07-19T05:14:28.760Z,952.55
2018-07-19T05:15:28.748Z,952.54
2018-07-19T05:16:28.780Z,952.50
2018-07-19T05:17:28.720Z,952.50
2018-07-19T05:18:28.707Z,952.50
2018-07-19T05:19:28.733Z,952.54
2018-07-19T05:20:28.713Z,952.52
2018-07-19T05:21:28.677Z,952.51
2018-07-19T05:22:28.676Z,952.53
2018-07-19T05:23:28.659Z,952.53
2018-07-19T05:24:28.666Z,952.51
2018-07-19T05:25:28.626Z,952.53
2018-07-19T05:26:28.621Z,952.53
2018-07-19T05:27:28.609Z,952.53
2018-07-19T05:28:28.627Z,952.51
2018-07-19T05:29:28.618Z,952.55
2018-07-19T05:30:28.569Z,952.56
2018-07-19T05:31:28.585Z,952.54
2018-07-19T05:32:28.576Z,952.57
2018-07-19T05:33:28.543Z,952.53
2018-07-19T05:34:28.565Z,952.54
2018-07-19T05:35:28.517Z,952.58
2018-07-19T05:36:28.536Z,952.54
2018-07-19T05:37:28.521Z,952.63
2018-07-19T05:38:28.480Z,952.59
2018-07-19T05:39:28.858Z,952.62
2018-07-19T05:40:28.516Z,952.61
2018-07-19T05:41:28.452Z,952.59
2018-07-19T05:42:28.481Z,952.67
2018-07-19T05:43:28.435Z,952.65
2018-07-19T05:44:28.439Z,952.67
2018-07-19T05:45:28.417Z,952.67
2018-07-19T05:46:28.388Z,952.69
2018-07-19T05:47:28.428Z,952.67
2018-07-19T05:48:28.370Z,952.75
2018-07-19T05:49:28.377Z,952.71
2018-07-19T05:50:28.350Z,952.69
2018-07-19T05:51:28.351Z,952.75
2018-07-19T05:52:28.345Z,952.72
2018-07-19T05:53:28.313Z,952.68
2018-07-19T05:54:28.333Z,952.68
2018-07-19T05:55:28.290Z,952.61
2018-07-19T05:56:28.279Z,952.63
2018-07-19T05:57:28.297Z,952.65
2018-07-19T05:58:28.251Z,952.63
2018-07-19T05:59:28.263Z,952.59
2018-07-19T06:00:28.808Z,952.63
2018-07-19T06:01:28.221Z,952.62
2018-07-19T06:02:28.210Z,952.64
2018-07-19T06:03:28.349Z,952.63
2018-07-19T06:04:28.205Z,952.63
2018-07-19T06:05:28.180Z,952.61
2018-07-19T06:06:28.163Z,952.64
2018-07-19T06:07:28.150Z,952.62
2018-07-19T06:08:28.142Z,952.65
2018-07-19T06:09:28.178Z,952.64
2018-07-19T06:10:28.765Z,952.66
2018-07-19T06:11:28.105Z,952.62
2018-07-19T06:12:28.092Z,952.59
2018-07-19T06:13:28.085Z,952.59
2018-07-19T06:14:28.119Z,952.55
2018-07-19T06:15:28.060Z,952.58
2018-07-19T06:16:28.045Z,952.61
2018-07-19T06:17:28.042Z,952.60
2018-07-19T06:18:28.023Z,952.62
2018-07-19T06:19:28.056Z,952.64
2018-07-19T06:20:28.018Z,952.63
2018-07-19T06:21:27.988Z,952.68
2018-07-19T06:22:27.984Z,952.64
2018-07-19T06:23:27.973Z,952.66
2018-07-19T06:24:27.985Z,952.61
2018-07-19T06:25:27.946Z,952.64
2018-07-19T06:26:27.950Z,952.65
2018-07-19T06:27:27.923Z,952.62
2018-07-19T06:28:27.978Z,952.57
2018-07-19T06:29:27.928Z,952.64
2018-07-19T06:30:27.893Z,952.63
2018-07-19T06:31:27.919Z,952.63
2018-07-19T06:32:27.917Z,952.61
2018-07-19T06:33:27.855Z,952.63
2018-07-19T06:34:27.843Z,952.66
2018-07-19T06:35:27.833Z,952.67
2018-07-19T06:36:27.822Z,952.67
2018-07-19T06:37:27.833Z,952.65
2018-07-19T06:38:27.820Z,952.65
2018-07-19T06:39:27.806Z,952.67
2018-07-19T06:40:27.831Z,952.59
2018-07-19T06:41:27.764Z,952.63
2018-07-19T06:42:27.753Z,952.58
2018-07-19T06:43:27.751Z,952.60
2018-07-19T06:44:27.740Z,952.55
2018-07-19T06:45:27.741Z,952.54
2018-07-19T06:46:27.702Z,952.56
2018-07-19T06:47:27.695Z,952.56
2018-07-19T06:48:27.710Z,952.64
2018-07-19T06:49:27.739Z,952.56
2018-07-19T06:50:27.675Z,952.66
2018-07-19T06:51:27.647Z,952.70
2018-07-19T06:52:27.639Z,952.70
2018-07-19T06:53:27.653Z,952.71
2018-07-19T06:54:27.614Z,952.65
2018-07-19T06:55:27.605Z,952.62
2018-07-19T06:56:27.641Z,952.59
2018-07-19T06:57:27.629Z,952.56
2018-07-19T06:58:27.571Z,952.58
2018-07-19T06:59:27.559Z,952.59
2018-07-19T07:00:27.578Z,952.56
2018-07-19T07:01:27.532Z,952.58
2018-07-19T07:02:27.544Z,952.59
2018-07-19T07:03:27.585Z,952.58
2018-07-19T07:04:27.509Z,952.60
2018-07-19T07:05:27.517Z,952.56
2018-07-19T07:06:27.477Z,952.55
2018-07-19T07:07:27.464Z,952.58
2018-07-19T07:08:27.477Z,952.60
2018-07-19T07:09:27.473Z,952.58
2018-07-19T07:10:27.438Z,952.59
2018-07-19T07:11:27.419Z,952.61
2018-07-19T07:12:27.409Z,952.60
2018-07-19T07:13:27.397Z,952.59
2018-07-19T07:14:27.440Z,952.54
2018-07-19T07:15:27.377Z,952.56
2018-07-19T07:16:27.363Z,952.55
2018-07-19T07:17:27.357Z,952.58
2018-07-19T07:18:27.341Z,952.55
2018-07-19T07:19:27.377Z,952.58
2018-07-19T07:20:27.339Z,952.58
2018-07-19T07:21:27.311Z,952.54
2018-07-19T07:22:27.293Z,952.55
2018-07-19T07:23:27.289Z,952.55
2018-07-19T07:24:27.311Z,952.55
2018-07-19T07:25:27.258Z,952.54
2018-07-19T07:26:27.832Z,952.55
2018-07-19T07:27:27.235Z,952.59
2018-07-19T07:28:27.230Z,952.57
2018-07-19T07:29:27.249Z,952.54
2018-07-19T07:30:27.206Z,952.55
2018-07-19T07:31:27.189Z,952.60
2018-07-19T07:32:27.198Z,952.62
2018-07-19T07:33:27.168Z,952.61
2018-07-19T07:34:27.186Z,952.60
2018-07-19T07:35:27.150Z,952.59
2018-07-19T07:36:27.138Z,952.61
2018-07-19T07:37:27.153Z,952.59
2018-07-19T07:38:27.126Z,952.54
2018-07-19T07:39:27.102Z,952.56
2018-07-19T07:40:27.097Z,952.56
2018-07-19T07:41:27.077Z,952.60
2018-07-19T07:42:27.098Z,952.60
2018-07-19T07:43:27.059Z,952.56
2018-07-19T07:44:27.068Z,952.60
2018-07-19T07:45:27.034Z,952.57
2018-07-19T07:46:27.025Z,952.59
2018-07-19T07:47:27.039Z,952.61
2018-07-19T07:48:27.001Z,952.62
2018-07-19T07:49:26.989Z,952.59
2018-07-19T07:50:27.000Z,952.62
2018-07-19T07:51:26.986Z,952.73
2018-07-19T07:52:26.990Z,952.60
2018-07-19T07:53:26.943Z,952.64
2018-07-19T07:54:26.930Z,952.61
2018-07-19T07:55:26.923Z,952.66
2018-07-19T07:56:26.928Z,952.62
2018-07-19T07:57:26.936Z,952.64
2018-07-19T07:58:26.887Z,952.62
2018-07-19T07:59:26.940Z,952.66
2018-07-19T08:00:26.905Z,952.64
2018-07-19T08:01:26.858Z,952.60
2018-07-19T08:02:26.894Z,952.65
2018-07-19T08:03:26.836Z,952.65
2018-07-19T08:04:26.849Z,952.65
2018-07-19T08:05:26.818Z,952.63
2018-07-19T08:06:26.798Z,952.72
2018-07-19T08:07:26.787Z,952.70
2018-07-19T08:08:26.788Z,952.69
2018-07-19T08:09:26.795Z,952.68
2018-07-19T08:10:26.791Z,952.64
2018-07-19T08:11:26.772Z,952.71
2018-07-19T08:12:26.739Z,952.73
2018-07-19T08:13:26.735Z,952.70
2018-07-19T08:14:26.730Z,952.70
2018-07-19T08:15:26.698Z,952.66
2018-07-19T08:16:26.730Z,952.69
2018-07-19T08:17:26.683Z,952.67
2018-07-19T08:18:26.676Z,952.71
2018-07-19T08:19:26.663Z,952.71
2018-07-19T08:20:26.665Z,952.71
2018-07-19T08:21:26.661Z,952.70
2018-07-19T08:22:26.627Z,952.76
2018-07-19T08:23:26.624Z,952.69
2018-07-19T08:24:26.633Z,952.69
2018-07-19T08:25:26.596Z,952.75
2018-07-19T08:26:26.631Z,952.70
2018-07-19T08:27:26.568Z,952.63
2018-07-19T08:28:26.568Z,952.79
2018-07-19T08:29:26.573Z,952.74
2018-07-19T08:30:26.542Z,952.79
2018-07-19T08:31:26.557Z,952.78
2018-07-19T08:32:26.589Z,952.72
2018-07-19T08:33:26.533Z,952.81
2018-07-19T08:34:26.503Z,952.81
2018-07-19T08:35:26.480Z,952.85
2018-07-19T08:36:26.505Z,952.76
2018-07-19T08:37:26.462Z,952.80
2018-07-19T08:38:26.458Z,952.75
2018-07-19T08:39:26.440Z,952.72
2018-07-19T08:40:26.422Z,952.79
2018-07-19T08:41:26.440Z,952.77
2018-07-19T08:42:26.405Z,952.74
2018-07-19T08:43:26.397Z,952.80
2018-07-19T08:44:26.394Z,952.74
2018-07-19T08:45:26.367Z,952.76
2018-07-19T08:46:26.387Z,952.79
2018-07-19T08:47:26.352Z,952.74
2018-07-19T08:48:26.339Z,952.76
2018-07-19T08:49:26.322Z,952.81
2018-07-19T08:50:26.333Z,952.73
2018-07-19T08:51:26.336Z,952.76
2018-07-19T08:52:26.294Z,952.82
2018-07-19T08:53:26.277Z,952.79
2018-07-19T08:54:26.273Z,952.78
2018-07-19T08:55:26.262Z,952.74
2018-07-19T08:56:26.310Z,952.77
2018-07-19T08:57:26.241Z,952.80
2018-07-19T08:58:26.235Z,952.75
2018-07-19T08:59:26.222Z,952.78
2018-07-19T09:00:26.205Z,952.83
2018-07-19T09:01:26.231Z,952.86
2018-07-19T09:02:26.221Z,952.84
2018-07-19T09:03:26.176Z,952.81
2018-07-19T09:04:26.166Z,952.88
2018-07-19T09:05:26.154Z,952.83
2018-07-19T09:06:26.168Z,952.85
2018-07-19T09:07:26.129Z,952.86
2018-07-19T09:08:26.133Z,952.82
2018-07-19T09:09:26.134Z,952.82
2018-07-19T09:10:26.128Z,952.81
2018-07-19T09:11:26.088Z,952.91
2018-07-19T09:12:26.071Z,952.88
2018-07-19T09:13:26.070Z,952.88
2018-07-19T09:14:26.065Z,952.86
2018-07-19T09:15:26.064Z,952.86
2018-07-19T09:16:26.038Z,952.91
2018-07-19T09:17:26.025Z,952.92
2018-07-19T09:18:26.011Z,952.87
2018-07-19T09:19:26.075Z,952.78
2018-07-19T09:20:26.343Z,952.85
2018-07-19T09:21:25.974Z,952.97
2018-07-19T09:22:25.964Z,952.88
2018-07-19T09:23:25.981Z,952.90
2018-07-19T09:24:25.943Z,952.89
2018-07-19T09:25:25.932Z,952.90
2018-07-19T09:26:25.930Z,952.90
2018-07-19T09:27:25.905Z,952.86
2018-07-19T09:28:25.920Z,952.90
2018-07-19T09:29:25.888Z,952.86
2018-07-19T09:30:25.872Z,952.87
2018-07-19T09:31:25.864Z,952.85
2018-07-19T09:32:25.887Z,952.86
2018-07-19T09:33:25.833Z,952.91
2018-07-19T09:34:25.827Z,952.92
2018-07-19T09:35:25.817Z,952.83
2018-07-19T09:36:25.810Z,952.86
2018-07-19T09:37:25.829Z,952.80
2018-07-19T09:38:25.834Z,952.91
2018-07-19T09:39:25.775Z,952.86
2018-07-19T09:40:25.765Z,952.84
2018-07-19T09:41:25.752Z,952.89
2018-07-19T09:42:25.788Z,952.77
2018-07-19T09:43:25.735Z,952.83
2018-07-19T09:44:25.739Z,952.86
2018-07-19T09:45:25.702Z,952.83
2018-07-19T09:46:25.692Z,952.83
2018-07-19T09:47:25.706Z,952.81
2018-07-19T09:48:25.670Z,952.84
2018-07-19T09:49:25.671Z,952.81
2018-07-19T09:50:25.674Z,952.84
2018-07-19T09:51:25.642Z,952.85
2018-07-19T09:52:25.675Z,952.83
2018-07-19T09:53:26.355Z,952.77
2018-07-19T09:54:25.645Z,952.78
2018-07-19T09:55:25.614Z,952.84
2018-07-19T09:56:25.591Z,952.84
2018-07-19T09:57:25.601Z,952.80
2018-07-19T09:58:25.561Z,952.81
2018-07-19T09:59:25.561Z,952.78
2018-07-19T10:00:25.566Z,952.82
2018-07-19T10:01:25.599Z,952.81
2018-07-19T10:02:25.528Z,952.79
2018-07-19T10:03:25.503Z,952.73
2018-07-19T10:04:25.505Z,952.81
2018-07-19T10:05:25.514Z,952.83
2018-07-19T10:06:25.477Z,952.81
2018-07-19T10:07:25.482Z,952.83
2018-07-19T10:08:25.481Z,952.84
2018-07-19T10:09:25.447Z,952.82
2018-07-19T10:10:25.437Z,952.81
2018-07-19T10:11:25.429Z,952.85
2018-07-19T10:12:25.440Z,952.83
2018-07-19T10:13:25.463Z,952.81
2018-07-19T10:14:25.448Z,952.81
2018-07-19T10:15:25.404Z,952.81
2018-07-19T10:16:25.369Z,952.77
2018-07-19T10:17:25.374Z,952.82
2018-07-19T10:18:25.355Z,952.83
2018-07-19T10:19:25.377Z,952.83
2018-07-19T10:20:25.372Z,952.82
2018-07-19T10:21:25.315Z,952.79
2018-07-19T10:22:25.307Z,952.79
2018-07-19T10:23:25.319Z,952.83
2018-07-19T10:24:25.352Z,952.86
2018-07-19T10:25:25.319Z,952.80
2018-07-19T10:26:25.262Z,952.85
2018-07-19T10:27:25.280Z,952.73
2018-07-19T10:28:25.240Z,952.72
2018-07-19T10:29:25.234Z,952.78
2018-07-19T10:30:25.221Z,952.85
2018-07-19T10:31:25.264Z,952.88
2018-07-19T10:32:25.288Z,952.86
2018-07-19T10:33:25.192Z,952.86
2018-07-19T10:34:25.256Z,952.86
2018-07-19T10:35:25.163Z,952.87
2018-07-19T10:36:25.811Z,952.84
2018-07-19T10:37:25.231Z,952.86
2018-07-19T10:38:25.177Z,952.91
2018-07-19T10:39:25.120Z,952.93
2018-07-19T10:40:25.106Z,952.89
2018-07-19T10:41:25.092Z,952.86
2018-07-19T10:42:25.106Z,952.87
2018-07-19T10:43:25.086Z,952.77
2018-07-19T10:44:25.086Z,952.77
2018-07-19T10:45:25.045Z,952.79
2018-07-19T10:46:25.035Z,952.78
2018-07-19T10:47:25.055Z,952.77
2018-07-19T10:48:25.008Z,952.80
2018-07-19T10:49:25.046Z,952.81
2018-07-19T10:50:24.986Z,952.81
2018-07-19T10:51:24.974Z,952.84
2018-07-19T10:52:24.968Z,952.90
2018-07-19T10:53:24.998Z,952.82
2018-07-19T10:54:24.951Z,952.79
2018-07-19T10:55:24.958Z,952.72
2018-07-19T10:56:24.920Z,952.71
2018-07-19T10:57:24.937Z,952.71
2018-07-19T10:58:24.927Z,952.63
2018-07-19T10:59:24.911Z,952.74
2018-07-19T11:00:24.872Z,952.72
2018-07-19T11:01:24.877Z,952.69
2018-07-19T11:02:24.877Z,952.70
2018-07-19T11:03:24.840Z,952.70
2018-07-19T11:04:24.841Z,952.69
2018-07-19T11:05:24.821Z,952.78
2018-07-19T11:06:24.814Z,952.73
2018-07-19T11:07:24.838Z,952.81
2018-07-19T11:08:24.810Z,952.75
2018-07-19T11:09:24.827Z,952.75
2018-07-19T11:10:24.762Z,952.77
2018-07-19T11:11:24.749Z,952.76
2018-07-19T11:12:24.770Z,952.84
2018-07-19T11:13:24.745Z,952.82
2018-07-19T11:14:24.717Z,952.82
2018-07-19T11:15:24.708Z,952.77
2018-07-19T11:16:24.718Z,952.79
2018-07-19T11:17:24.720Z,952.77
2018-07-19T11:18:24.673Z,952.71
2018-07-19T11:19:24.676Z,952.75
2018-07-19T11:20:24.650Z,952.77
2018-07-19T11:21:24.647Z,952.80
2018-07-19T11:22:24.662Z,952.74
2018-07-19T11:23:24.624Z,952.76
2018-07-19T11:24:24.611Z,952.72
2018-07-19T11:25:24.636Z,952.75
2018-07-19T11:26:24.609Z,952.67
2018-07-19T11:27:24.572Z,952.72
2018-07-19T11:28:24.627Z,952.76
2018-07-19T11:29:24.578Z,952.67
2018-07-19T11:30:24.539Z,952.66
2018-07-19T11:31:24.544Z,952.64
2018-07-19T11:32:24.552Z,952.67
2018-07-19T11:33:24.500Z,952.63
2018-07-19T11:34:24.502Z,952.65
2018-07-19T11:35:24.485Z,952.66
2018-07-19T11:36:24.471Z,952.58
2018-07-19T11:37:24.511Z,952.65
2018-07-19T11:38:24.442Z,952.70
2018-07-19T11:39:24.439Z,952.69
2018-07-19T11:40:24.428Z,952.78
2018-07-19T11:41:24.412Z,952.74
2018-07-19T11:42:24.439Z,952.76
2018-07-19T11:43:24.411Z,952.67
2018-07-19T11:44:24.391Z,952.72
2018-07-19T11:45:24.369Z,952.73
2018-07-19T11:46:24.364Z,952.73
2018-07-19T11:47:24.383Z,952.73
2018-07-19T11:48:24.333Z,952.68
2018-07-19T11:49:24.356Z,952.67
2018-07-19T11:50:24.315Z,952.68
2018-07-19T11:51:24.302Z,952.68
2018-07-19T11:52:24.296Z,952.57
2018-07-19T11:53:24.283Z,952.59
2018-07-19T11:54:24.303Z,952.67
2018-07-19T11:55:24.283Z,952.64
2018-07-19T11:56:24.244Z,952.61
2018-07-19T11:57:24.236Z,952.63
2018-07-19T11:58:24.273Z,952.62
2018-07-19T11:59:24.226Z,952.66
2018-07-19T12:00:24.216Z,952.62
2018-07-19T12:01:24.202Z,952.58
2018-07-19T12:02:24.187Z,952.61
2018-07-19T12:03:24.216Z,952.67
2018-07-19T12:04:24.169Z,952.66
2018-07-19T12:05:24.148Z,952.63
2018-07-19T12:06:24.139Z,952.63
2018-07-19T12:07:24.138Z,952.59
2018-07-19T12:08:24.146Z,952.61
2018-07-19T12:09:24.107Z,952.66
2018-07-19T12:10:24.099Z,952.63
2018-07-19T12:11:24.083Z,952.61
2018-07-19T12:12:24.075Z,952.62
2018-07-19T12:13:24.114Z,952.60
2018-07-19T12:14:24.050Z,952.57
2018-07-19T12:15:24.042Z,952.60
2018-07-19T12:16:24.035Z,952.63
2018-07-19T12:17:24.018Z,952.62
2018-07-19T12:18:24.037Z,952.59
2018-07-19T12:19:24.015Z,952.58
2018-07-19T12:20:23.987Z,952.55
2018-07-19T12:21:24.003Z,952.59
2018-07-19T12:22:23.965Z,952.63
2018-07-19T12:23:23.958Z,952.63
2018-07-19T12:24:23.950Z,952.59
2018-07-19T12:25:23.971Z,952.52
2018-07-19T12:26:23.927Z,952.54
2018-07-19T12:27:23.910Z,952.54
2018-07-19T12:28:23.900Z,952.60